createdAt,value
2019-04-11T00:00:55.580Z,45.17
2019-04-11T00:03:25.212Z,48.07
2019-04-11T00:05:54.921Z,44.15
2019-04-11T00:08:25.860Z,45.12
2019-04-11T00:10:57.543Z,41.42
2019-04-11T00:13:30.127Z,45.33
2019-04-11T00:15:59.243Z,42.62
2019-04-11T00:18:28.657Z,43.83
2019-04-11T00:20:58.295Z,50.15
2019-04-11T00:23:28.107Z,46.45
2019-04-11T00:25:58.031Z,48.98
2019-04-11T00:28:27.877Z,45.70
2019-04-11T00:30:58.696Z,45.92
2019-04-11T00:33:32.109Z,53.20
2019-04-11T00:36:02.687Z,52.65
2019-04-11T00:38:32.193Z,50.45
2019-04-11T00:41:01.718Z,53.15
2019-04-11T00:43:36.975Z,52.88
2019-04-11T00:46:02.929Z,55.80
2019-04-11T00:48:33.494Z,53.65
2019-04-11T00:51:03.547Z,54.00
2019-04-11T00:53:34.536Z,56.55
2019-04-11T00:56:06.250Z,50.05
2019-04-11T00:58:38.000Z,54.33
2019-04-11T01:01:07.460Z,53.95
2019-04-11T01:03:46.180Z,53.15
2019-04-11T01:06:18.236Z,52.17
2019-04-11T01:08:48.184Z,49.83
2019-04-11T01:11:17.763Z,50.85
2019-04-11T01:13:52.440Z,47.30
2019-04-11T01:16:21.464Z,53.13
2019-04-11T01:18:52.038Z,51.33
2019-04-11T01:21:21.615Z,51.05
2019-04-11T01:23:51.327Z,50.10
2019-04-11T01:26:21.227Z,46.60
2019-04-11T01:28:52.000Z,48.17
2019-04-11T01:31:23.479Z,49.80
2019-04-11T01:33:53.835Z,50.85
2019-04-11T01:36:23.708Z,49.60
2019-04-11T01:38:54.849Z,46.60
2019-04-11T01:41:24.634Z,50.38
2019-04-11T01:44:00.741Z,49.70
2019-04-11T01:46:26.355Z,52.88
2019-04-11T01:48:57.697Z,46.10
2019-04-11T01:51:27.054Z,49.88
2019-04-11T01:53:57.414Z,47.88
2019-04-11T01:56:27.370Z,51.23
2019-04-11T01:58:57.303Z,51.28
2019-04-11T02:01:28.636Z,50.35
2019-04-11T02:03:59.753Z,49.58
2019-04-11T02:06:29.875Z,46.98
2019-04-11T02:08:59.828Z,48.52
2019-04-11T02:11:29.727Z,48.48
2019-04-11T02:14:08.017Z,47.10
2019-04-11T02:16:30.358Z,45.92
2019-04-11T02:18:59.931Z,40.90
2019-04-11T02:21:29.580Z,39.15
2019-04-11T02:24:01.618Z,40.85
2019-04-11T02:26:33.555Z,38.67
2019-04-11T02:29:03.455Z,38.17
2019-04-11T02:31:34.785Z,37.33
2019-04-11T02:34:05.690Z,35.17
2019-04-11T02:36:36.410Z,25.90
2019-04-11T02:39:14.532Z,34.25
2019-04-11T02:41:39.818Z,33.95
2019-04-11T02:44:27.141Z,33.73
2019-04-11T02:46:48.263Z,34.55
2019-04-11T02:49:11.618Z,35.13
2019-04-11T02:51:42.828Z,35.13
2019-04-11T02:54:13.545Z,35.58
2019-04-11T02:56:45.055Z,38.30
2019-04-11T02:59:15.429Z,35.55
2019-04-11T03:01:46.439Z,34.43
2019-04-11T03:04:16.683Z,34.70
2019-04-11T03:06:47.793Z,33.23
2019-04-11T03:09:18.156Z,34.27
2019-04-11T03:11:49.455Z,34.70
2019-04-11T03:14:20.690Z,33.60
2019-04-11T03:16:59.728Z,34.07
2019-04-11T03:19:40.886Z,34.07
2019-04-11T03:21:54.312Z,32.80
2019-04-11T03:24:24.328Z,24.23
2019-04-11T03:26:56.430Z,31.33
2019-04-11T03:29:26.693Z,31.17
2019-04-11T03:32:37.209Z,31.70
2019-04-11T03:37:24.164Z,30.40
2019-04-11T03:39:52.872Z,30.23
2019-04-11T03:42:17.434Z,22.45
2019-04-11T03:44:39.519Z,30.73
2019-04-11T03:47:16.805Z,31.57
2019-04-11T03:49:43.339Z,30.65
2019-04-11T03:52:06.317Z,30.07
2019-04-11T03:54:40.135Z,28.67
2019-04-11T03:57:09.736Z,28.57
2019-04-11T03:59:40.738Z,28.32
2019-04-11T04:02:12.994Z,28.85
2019-04-11T04:04:43.658Z,28.95
2019-04-11T04:07:16.444Z,28.50
2019-04-11T04:09:46.149Z,29.07
2019-04-11T04:12:16.445Z,27.40
2019-04-11T04:14:49.385Z,26.75
2019-04-11T04:17:21.371Z,27.25
2019-04-11T04:19:54.291Z,26.12
2019-04-11T04:24:55.882Z,24.98
2019-04-11T04:27:49.186Z,24.15
2019-04-11T04:30:18.168Z,25.88
2019-04-11T04:32:49.332Z,25.77
2019-04-11T04:35:21.393Z,25.48
2019-04-11T04:37:51.519Z,25.50
2019-04-11T04:40:35.555Z,24.40
2019-04-11T04:42:55.451Z,24.90
2019-04-11T04:45:23.901Z,23.77
2019-04-11T04:48:02.565Z,25.00
2019-04-11T04:50:28.513Z,23.98
2019-04-11T04:52:58.166Z,25.02
2019-04-11T04:55:30.297Z,24.37
2019-04-11T04:58:01.802Z,24.80
2019-04-11T05:00:31.919Z,25.23
2019-04-11T05:03:02.392Z,23.20
2019-04-11T05:05:35.748Z,24.43
2019-04-11T05:08:06.172Z,24.60
2019-04-11T05:10:35.991Z,23.32
2019-04-11T05:13:07.849Z,22.67
2019-04-11T05:18:06.271Z,21.23
2019-04-11T05:20:36.407Z,21.57
2019-04-11T05:23:06.347Z,21.70
2019-04-11T05:25:36.953Z,22.30
2019-04-11T05:28:06.626Z,22.20
2019-04-11T05:30:36.386Z,21.52
2019-04-11T05:33:06.208Z,22.25
2019-04-11T05:35:36.274Z,23.47
2019-04-11T05:38:05.774Z,20.92
2019-04-11T05:40:35.815Z,22.20
2019-04-11T05:43:05.984Z,21.50
2019-04-11T05:45:35.998Z,21.23
2019-04-11T05:48:09.318Z,20.25
2019-04-11T05:50:44.250Z,20.37
2019-04-11T05:53:10.671Z,20.20
2019-04-11T05:55:43.332Z,19.98
2019-04-11T05:58:14.234Z,21.33
2019-04-11T06:00:44.997Z,21.37
2019-04-11T06:03:15.495Z,21.27
2019-04-11T06:05:46.476Z,21.17
2019-04-11T06:08:22.658Z,21.73
2019-04-11T06:10:50.459Z,19.98
2019-04-11T06:13:22.685Z,18.30
2019-04-11T06:18:31.100Z,18.23
2019-04-11T06:20:57.837Z,18.12
2019-04-11T06:23:29.605Z,18.00
2019-04-11T06:26:00.813Z,17.87
2019-04-11T06:28:32.253Z,19.37
2019-04-11T06:31:04.568Z,18.93
2019-04-11T06:33:36.525Z,18.12
2019-04-11T06:38:38.649Z,18.02
2019-04-11T06:41:10.335Z,17.20
2019-04-11T06:43:42.488Z,18.05
2019-04-11T06:46:13.657Z,18.27
2019-04-11T06:48:45.498Z,18.82
2019-04-11T06:51:17.720Z,17.48
2019-04-11T06:53:48.722Z,16.73
2019-04-11T06:56:20.878Z,18.17
2019-04-11T06:58:53.603Z,18.73
2019-04-11T07:01:25.766Z,16.95
2019-04-11T07:03:57.537Z,17.75
2019-04-11T07:06:29.404Z,18.12
2019-04-11T07:09:00.982Z,18.20
2019-04-11T07:14:04.113Z,17.57
2019-04-11T07:16:36.244Z,17.30
2019-04-11T07:19:07.568Z,17.90
2019-04-11T07:21:37.103Z,18.37
2019-04-11T07:24:08.112Z,18.80
2019-04-11T07:26:39.411Z,18.40
2019-04-11T07:29:10.778Z,18.90
2019-04-11T07:31:42.034Z,18.55
2019-04-11T07:34:13.070Z,18.87
2019-04-11T07:36:44.133Z,18.33
2019-04-11T07:39:14.636Z,19.03
2019-04-11T07:41:45.656Z,18.90
2019-04-11T07:44:17.613Z,19.33
2019-04-11T07:49:19.710Z,19.55
2019-04-11T07:51:51.289Z,18.90
2019-04-11T07:54:20.804Z,18.97
2019-04-11T07:56:52.781Z,19.35
2019-04-11T07:59:25.010Z,18.55
2019-04-11T08:01:56.348Z,20.50
2019-04-11T08:04:27.763Z,20.45
2019-04-11T08:06:59.124Z,20.08
2019-04-11T08:09:29.037Z,19.35
2019-04-11T08:12:00.375Z,19.75
2019-04-11T08:14:32.759Z,20.15
2019-04-11T08:17:05.389Z,19.90
2019-04-11T08:19:42.761Z,19.85
2019-04-11T08:22:12.972Z,19.90
2019-04-11T08:24:44.902Z,19.67
2019-04-11T08:27:16.090Z,19.80
2019-04-11T08:29:48.837Z,19.32
2019-04-11T08:32:19.988Z,20.75
2019-04-11T08:34:51.328Z,20.30
2019-04-11T08:37:23.287Z,19.73
2019-04-11T08:42:27.489Z,20.75
2019-04-11T08:44:58.519Z,20.88
2019-04-11T08:47:41.760Z,23.85
2019-04-11T08:50:02.118Z,22.25
2019-04-11T08:52:33.328Z,22.05
2019-04-11T08:55:04.436Z,22.50
2019-04-11T08:57:36.158Z,22.60
2019-04-11T09:02:39.059Z,22.65
2019-04-11T09:05:14.774Z,24.02
2019-04-11T09:07:43.574Z,23.38
2019-04-11T09:10:15.685Z,23.60
2019-04-11T09:12:47.027Z,24.18
2019-04-11T09:15:19.110Z,25.30
2019-04-11T09:17:59.059Z,24.02
2019-04-11T09:20:23.348Z,25.80
2019-04-11T09:22:55.479Z,24.82
2019-04-11T09:25:27.419Z,25.45
2019-04-11T09:28:00.684Z,26.17
2019-04-11T09:30:32.659Z,26.17
2019-04-11T09:33:03.064Z,26.95
2019-04-11T09:35:35.254Z,27.77
2019-04-11T09:38:06.545Z,26.42
2019-04-11T09:40:37.888Z,27.30
2019-04-11T09:43:09.361Z,27.73
2019-04-11T09:45:42.368Z,28.35
2019-04-11T09:48:19.418Z,27.45
2019-04-11T09:50:49.407Z,27.75
2019-04-11T09:53:20.742Z,27.73
2019-04-11T09:55:51.858Z,28.85
2019-04-11T09:58:23.227Z,28.52
2019-04-11T10:00:54.977Z,26.50
2019-04-11T10:03:26.089Z,27.40
2019-04-11T10:05:57.086Z,26.27
2019-04-11T10:08:28.144Z,27.67
2019-04-11T10:10:59.671Z,27.98
2019-04-11T10:13:31.026Z,27.90
2019-04-11T10:16:03.989Z,27.58
2019-04-11T10:18:38.632Z,28.27
2019-04-11T10:21:09.291Z,28.67
2019-04-11T10:23:40.941Z,26.65
2019-04-11T10:26:11.571Z,25.82
2019-04-11T10:28:43.905Z,27.40
2019-04-11T10:31:15.508Z,27.42
2019-04-11T10:33:44.934Z,27.82
2019-04-11T10:36:15.884Z,26.97
2019-04-11T10:38:45.410Z,29.80
2019-04-11T10:41:17.111Z,25.75
2019-04-11T10:43:47.564Z,27.57
2019-04-11T10:46:19.586Z,27.77
2019-04-11T10:51:30.251Z,25.62
2019-04-11T10:53:59.738Z,27.63
2019-04-11T10:56:30.752Z,26.57
2019-04-11T10:59:00.121Z,26.33
2019-04-11T11:01:31.734Z,25.92
2019-04-11T11:04:03.393Z,27.32
2019-04-11T11:06:35.752Z,27.02
2019-04-11T11:09:08.708Z,26.93
2019-04-11T11:11:40.761Z,27.15
2019-04-11T11:14:12.354Z,27.13
2019-04-11T11:19:33.567Z,27.77
2019-04-11T11:21:49.202Z,26.62
2019-04-11T11:24:21.772Z,26.80
2019-04-11T11:26:55.567Z,27.58
2019-04-11T11:29:24.737Z,27.02
2019-04-11T11:31:56.579Z,28.23
2019-04-11T11:34:28.404Z,26.82
2019-04-11T11:37:00.648Z,27.73
2019-04-11T11:39:31.104Z,26.17
2019-04-11T11:42:02.441Z,26.75
2019-04-11T11:44:33.426Z,27.50
2019-04-11T11:47:05.479Z,27.30
2019-04-11T11:49:45.812Z,27.40
2019-04-11T11:52:08.851Z,28.77
2019-04-11T11:54:40.327Z,27.35
2019-04-11T11:57:11.262Z,26.87
2019-04-11T11:59:42.863Z,27.52
2019-04-11T12:04:46.464Z,26.50
2019-04-11T12:07:18.851Z,26.70
2019-04-11T12:09:50.947Z,27.13
2019-04-11T12:12:22.091Z,28.17
2019-04-11T12:14:53.777Z,28.43
2019-04-11T12:19:55.017Z,27.17
2019-04-11T12:22:25.317Z,27.05
2019-04-11T12:24:58.448Z,27.27
2019-04-11T12:27:31.111Z,28.60
2019-04-11T12:30:04.448Z,27.98
2019-04-11T12:32:35.029Z,27.87
2019-04-11T12:35:08.141Z,27.07
2019-04-11T12:37:41.308Z,26.37
2019-04-11T12:40:12.457Z,27.35
2019-04-11T12:42:42.779Z,26.55
2019-04-11T12:45:13.746Z,27.22
2019-04-11T12:47:44.260Z,26.53
2019-04-11T12:50:15.600Z,26.48
2019-04-11T12:52:46.728Z,25.80
2019-04-11T12:55:17.729Z,27.40
2019-04-11T12:57:48.836Z,28.33
2019-04-11T13:00:18.668Z,26.62
2019-04-11T13:02:50.636Z,27.22
2019-04-11T13:05:21.713Z,27.80
2019-04-11T13:07:52.696Z,28.23
2019-04-11T13:10:24.087Z,27.13
2019-04-11T13:12:54.971Z,26.68
2019-04-11T13:15:25.985Z,27.20
2019-04-11T13:17:57.128Z,27.03
2019-04-11T13:20:28.101Z,27.07
2019-04-11T13:22:59.100Z,27.48
2019-04-11T13:25:30.239Z,28.40
2019-04-11T13:27:59.692Z,28.45
2019-04-11T13:30:30.735Z,27.45
2019-04-11T13:33:02.386Z,27.87
2019-04-11T13:35:33.570Z,27.58
2019-04-11T13:38:03.522Z,28.17
2019-04-11T13:40:34.668Z,26.30
2019-04-11T13:43:04.447Z,27.32
2019-04-11T13:45:35.664Z,25.00
2019-04-11T13:48:09.705Z,26.12
2019-04-11T13:50:39.247Z,27.17
2019-04-11T13:53:10.582Z,25.57
2019-04-11T13:55:42.027Z,25.48
2019-04-11T13:58:11.441Z,25.08
2019-04-11T14:00:42.502Z,26.87
2019-04-11T14:03:13.605Z,25.50
2019-04-11T14:05:43.627Z,27.20
2019-04-11T14:08:14.617Z,25.57
2019-04-11T14:10:45.620Z,25.50
2019-04-11T14:13:15.007Z,25.33
2019-04-11T14:15:46.125Z,25.82
2019-04-11T14:18:17.219Z,26.82
2019-04-11T14:20:48.307Z,27.15
2019-04-11T14:23:19.324Z,25.40
2019-04-11T14:25:50.400Z,27.07
2019-04-11T14:28:24.161Z,26.07
2019-04-11T14:30:54.041Z,26.48
2019-04-11T14:33:27.194Z,26.07
2019-04-11T14:35:57.870Z,26.15
2019-04-11T14:38:32.043Z,25.72
2019-04-11T14:41:02.147Z,25.62
2019-04-11T14:43:33.436Z,26.42
2019-04-11T14:46:06.882Z,27.23
2019-04-11T14:48:37.853Z,26.50
2019-04-11T14:51:10.120Z,25.57
2019-04-11T14:53:41.022Z,26.57
2019-04-11T14:56:12.005Z,26.20
2019-04-11T14:58:43.158Z,26.73
2019-04-11T15:01:14.151Z,25.02
2019-04-11T15:03:45.203Z,25.07
2019-04-11T15:06:16.211Z,26.23
2019-04-11T15:08:47.638Z,26.27
2019-04-11T15:11:19.282Z,26.15
2019-04-11T15:13:50.349Z,25.27
2019-04-11T15:16:21.423Z,27.47
2019-04-11T15:18:52.602Z,26.17
2019-04-11T15:21:23.685Z,27.32
2019-04-11T15:23:53.566Z,27.67
2019-04-11T15:26:24.683Z,26.27
2019-04-11T15:28:55.739Z,27.58
2019-04-11T15:31:25.543Z,27.00
2019-04-11T15:33:56.689Z,26.87
2019-04-11T15:36:28.462Z,26.10
2019-04-11T15:38:59.963Z,27.37
2019-04-11T15:41:31.063Z,27.20
2019-04-11T15:44:02.217Z,27.40
2019-04-11T15:46:33.186Z,26.68
2019-04-11T15:49:04.349Z,24.93
2019-04-11T15:51:35.406Z,26.77
2019-04-11T15:54:07.013Z,27.40
2019-04-11T15:56:41.703Z,26.75
2019-04-11T15:59:12.982Z,25.80
2019-04-11T16:01:43.568Z,27.20
2019-04-11T16:04:14.516Z,26.77
2019-04-11T16:06:45.680Z,28.05
2019-04-11T16:09:16.058Z,26.07
2019-04-11T16:11:47.743Z,27.67
2019-04-11T16:14:19.163Z,28.20
2019-04-11T16:16:50.223Z,27.65
2019-04-11T16:19:21.289Z,28.07
2019-04-11T16:21:54.687Z,27.75
2019-04-11T16:24:27.322Z,29.15
2019-04-11T16:26:57.573Z,26.97
2019-04-11T16:29:28.566Z,28.57
2019-04-11T16:31:59.677Z,28.13
2019-04-11T16:37:00.236Z,26.02
2019-04-11T16:39:32.994Z,27.27
2019-04-11T16:42:03.962Z,27.17
2019-04-11T16:44:34.974Z,28.73
2019-04-11T16:47:08.264Z,27.40
2019-04-11T16:49:37.103Z,27.98
2019-04-11T16:52:08.374Z,28.40
2019-04-11T16:54:39.764Z,26.85
2019-04-11T16:57:08.830Z,27.55
2019-04-11T16:59:38.360Z,28.50
2019-04-11T17:02:07.847Z,28.52
2019-04-11T17:04:37.499Z,29.00
2019-04-11T17:07:08.599Z,28.10
2019-04-11T17:09:39.571Z,27.67
2019-04-11T17:12:10.102Z,28.10
2019-04-11T17:14:39.510Z,27.98
2019-04-11T17:17:14.945Z,29.60
2019-04-11T17:19:40.143Z,28.73
2019-04-11T17:22:09.498Z,29.25
2019-04-11T17:24:39.004Z,29.60
2019-04-11T17:27:08.329Z,28.07
2019-04-11T17:29:37.803Z,27.90
2019-04-11T17:32:07.205Z,29.67
2019-04-11T17:34:37.901Z,28.05
2019-04-11T17:37:07.399Z,28.75
2019-04-11T17:39:40.174Z,29.20
2019-04-11T17:42:10.879Z,29.37
2019-04-11T17:44:40.820Z,21.87
2019-04-11T17:47:10.311Z,28.83
2019-04-11T17:49:39.746Z,30.00
2019-04-11T17:52:09.337Z,28.87
2019-04-11T17:54:38.818Z,28.95
2019-04-11T17:57:08.676Z,28.17
2019-04-11T17:59:38.106Z,31.07
2019-04-11T18:02:10.411Z,29.52
2019-04-11T18:04:44.028Z,29.18
2019-04-11T18:07:11.888Z,28.53
2019-04-11T18:09:41.364Z,28.25
2019-04-11T18:12:10.717Z,28.10
2019-04-11T18:14:40.122Z,28.10
2019-04-11T18:17:09.664Z,28.12
2019-04-11T18:19:39.165Z,29.07
2019-04-11T18:22:13.295Z,26.80
2019-04-11T18:27:09.393Z,28.65
2019-04-11T18:29:47.078Z,28.90
2019-04-11T18:32:18.327Z,30.30
2019-04-11T18:34:47.831Z,29.02
2019-04-11T18:37:17.203Z,29.42
2019-04-11T18:39:46.682Z,28.55
2019-04-11T18:42:16.093Z,29.72
2019-04-11T18:44:45.601Z,28.85
2019-04-11T18:47:15.042Z,29.55
2019-04-11T18:49:44.515Z,28.75
2019-04-11T18:52:19.744Z,29.32
2019-04-11T18:55:00.032Z,25.53
2019-04-11T18:58:01.763Z,27.50
2019-04-11T19:00:52.285Z,27.48
2019-04-11T19:04:12.787Z,30.10
2019-04-11T19:07:08.109Z,29.25
2019-04-11T19:10:14.346Z,27.95
2019-04-11T19:16:26.631Z,26.75
2019-04-11T19:19:29.662Z,26.73
2019-04-11T19:22:37.437Z,28.35
2019-04-11T19:28:44.809Z,26.33
2019-04-11T19:35:18.914Z,24.50
2019-04-11T19:41:18.347Z,24.82
2019-04-11T19:43:49.295Z,24.55
2019-04-11T19:46:20.470Z,26.40
2019-04-11T19:48:50.079Z,26.42
2019-04-11T19:54:47.142Z,26.52
2019-04-11T19:57:16.633Z,25.32
2019-04-11T19:59:45.942Z,24.55
2019-04-11T20:02:15.355Z,27.02
2019-04-11T20:04:46.645Z,25.62
2019-04-11T20:07:15.964Z,25.90
2019-04-11T20:09:45.412Z,26.73
2019-04-11T20:12:14.921Z,24.67
2019-04-11T20:14:45.980Z,25.23
2019-04-11T20:17:18.907Z,27.62
2019-04-11T20:19:46.701Z,28.38
2019-04-11T20:22:16.080Z,27.02
2019-04-11T20:24:46.737Z,26.82
2019-04-11T20:27:20.001Z,28.98
2019-04-11T20:29:51.070Z,29.30
2019-04-11T20:32:18.717Z,29.60
2019-04-11T20:34:48.204Z,25.80
2019-04-11T20:37:17.684Z,28.17
2019-04-11T20:39:47.580Z,29.37
2019-04-11T20:42:17.422Z,26.93
2019-04-11T20:44:46.842Z,29.92
2019-04-11T20:47:16.912Z,28.73
2019-04-11T20:49:48.289Z,29.32
2019-04-11T20:52:19.072Z,29.85
2019-04-11T20:54:49.524Z,27.55
2019-04-11T20:57:25.723Z,26.73
2019-04-11T20:59:50.078Z,26.05
2019-04-11T21:02:19.425Z,26.65
2019-04-11T21:04:48.884Z,24.43
2019-04-11T21:07:25.261Z,24.67
2019-04-11T21:09:54.958Z,25.12
2019-04-11T21:12:24.471Z,25.10
2019-04-11T21:14:53.787Z,24.70
2019-04-11T21:17:23.198Z,23.83
2019-04-11T21:19:53.272Z,26.40
2019-04-11T21:22:24.188Z,25.80
2019-04-11T21:24:54.414Z,25.93
2019-04-11T21:27:23.837Z,23.90
2019-04-11T21:29:53.348Z,25.92
2019-04-11T21:32:22.737Z,25.55
2019-04-11T21:34:52.032Z,24.15
2019-04-11T21:37:21.513Z,25.20
2019-04-11T21:39:52.534Z,24.65
2019-04-11T21:42:22.018Z,24.30
2019-04-11T21:44:51.489Z,24.47
2019-04-11T21:47:21.060Z,25.10
2019-04-11T21:49:50.525Z,25.08
2019-04-11T21:52:19.897Z,24.57
2019-04-11T21:54:49.293Z,25.88
2019-04-11T21:57:19.265Z,24.85
2019-04-11T21:59:51.232Z,26.97
2019-04-11T22:02:23.966Z,26.23
2019-04-11T22:04:51.418Z,27.27
2019-04-11T22:07:20.906Z,27.40
2019-04-11T22:09:50.216Z,26.45
2019-04-11T22:12:19.595Z,27.15
2019-04-11T22:14:49.124Z,26.07
2019-04-11T22:17:18.688Z,27.42
2019-04-11T22:19:48.163Z,26.93
2019-04-11T22:22:17.637Z,27.77
2019-04-11T22:24:46.984Z,27.73
2019-04-11T22:27:16.387Z,27.50
2019-04-11T22:29:45.735Z,27.82
2019-04-11T22:32:15.246Z,27.50
2019-04-11T22:34:46.165Z,25.62
2019-04-11T22:37:15.547Z,27.10
2019-04-11T22:39:45.007Z,25.52
2019-04-11T22:42:14.395Z,25.95
2019-04-11T22:44:43.936Z,26.87
2019-04-11T22:47:13.431Z,26.02
2019-04-11T22:49:43.080Z,25.00
2019-04-11T22:52:12.484Z,25.25
2019-04-11T22:54:45.361Z,25.52
2019-04-11T22:57:14.985Z,24.92
2019-04-11T22:59:45.325Z,25.23
2019-04-11T23:02:17.051Z,24.10
2019-04-11T23:04:47.581Z,23.32
2019-04-11T23:07:17.884Z,21.97
2019-04-11T23:09:49.047Z,22.33
2019-04-11T23:12:19.337Z,21.93
2019-04-11T23:14:48.726Z,21.33
2019-04-11T23:17:18.260Z,20.62
2019-04-11T23:19:47.640Z,20.85
2019-04-11T23:22:17.111Z,20.50
2019-04-11T23:24:46.451Z,21.23
2019-04-11T23:27:15.976Z,20.75
2019-04-11T23:29:47.082Z,20.27
2019-04-11T23:32:16.444Z,20.27
2019-04-11T23:34:45.951Z,19.10
2019-04-11T23:37:15.412Z,19.40
2019-04-11T23:39:44.902Z,17.55
2019-04-11T23:42:14.278Z,18.15
2019-04-11T23:44:43.598Z,17.85
2019-04-11T23:47:12.958Z,16.55
2019-04-11T23:49:42.584Z,17.45
2019-04-11T23:52:12.028Z,15.95
2019-04-11T23:54:41.507Z,17.20
2019-04-11T23:57:10.924Z,16.95
2019-04-11T23:59:40.332Z,16.97
